sensor_id;sensor_type;location;lat;lon;timestamp;temperature;humidity
4002;DHT22;2015;48.670;9.060;2022-09-30T00:02:09;8.40;99.90
4002;DHT22;2015;48.670;9.060;2022-09-30T00:04:42;8.40;99.90
4002;DHT22;2015;48.670;9.060;2022-09-30T00:07:14;8.50;99.90
4002;DHT22;2015;48.670;9.060;2022-09-30T00:09:46;8.50;99.90
4002;DHT22;2015;48.670;9.060;2022-09-30T00:12:19;8.50;99.90
4002;DHT22;2015;48.670;9.060;2022-09-30T00:14:50;8.50;99.90
4002;DHT22;2015;48.670;9.060;2022-09-30T00:17:22;8.50;99.90
4002;DHT22;2015;48.670;9.060;2022-09-30T00:19:54;8.50;99.90
4002;DHT22;2015;48.670;9.060;2022-09-30T00:22:25;8.50;99.90
4002;DHT22;2015;48.670;9.060;2022-09-30T00:24:57;8.40;99.90
4002;DHT22;2015;48.670;9.060;2022-09-30T00:27:29;8.40;99.90
4002;DHT22;2015;48.670;9.060;2022-09-30T00:30:01;8.50;99.90
4002;DHT22;2015;48.670;9.060;2022-09-30T00:32:33;8.50;99.90
4002;DHT22;2015;48.670;9.060;2022-09-30T00:35:05;8.60;99.90
4002;DHT22;2015;48.670;9.060;2022-09-30T00:37:37;8.60;99.90
4002;DHT22;2015;48.670;9.060;2022-09-30T00:40:09;8.60;99.90
4002;DHT22;2015;48.670;9.060;2022-09-30T00:42:42;8.60;99.90
4002;DHT22;2015;48.670;9.060;2022-09-30T00:45:14;8.70;99.90
4002;DHT22;2015;48.670;9.060;2022-09-30T00:50:44;8.70;99.90
4002;DHT22;2015;48.670;9.060;2022-09-30T00:53:42;8.70;99.90
4002;DHT22;2015;48.670;9.060;2022-09-30T00:56:18;8.80;99.90
4002;DHT22;2015;48.670;9.060;2022-09-30T00:58:58;8.80;99.90
4002;DHT22;2015;48.670;9.060;2022-09-30T01:01:31;8.80;99.90
4002;DHT22;2015;48.670;9.060;2022-09-30T01:04:15;8.80;99.90
4002;DHT22;2015;48.670;9.060;2022-09-30T01:06:48;8.80;99.90
4002;DHT22;2015;48.670;9.060;2022-09-30T01:09:20;8.80;99.90
4002;DHT22;2015;48.670;9.060;2022-09-30T01:11:53;8.90;99.90
4002;DHT22;2015;48.670;9.060;2022-09-30T01:14:26;8.90;99.90
4002;DHT22;2015;48.670;9.060;2022-09-30T01:28:58;8.90;99.90
4002;DHT22;2015;48.670;9.060;2022-09-30T01:42:31;8.80;99.90
4002;DHT22;2015;48.670;9.060;2022-09-30T01:45:25;8.80;99.90
4002;DHT22;2015;48.670;9.060;2022-09-30T01:53:40;8.80;99.90
4002;DHT22;2015;48.670;9.060;2022-09-30T01:56:18;8.90;99.90
4002;DHT22;2015;48.670;9.060;2022-09-30T01:59:06;8.90;99.90
4002;DHT22;2015;48.670;9.060;2022-09-30T02:01:43;9.00;99.90
4002;DHT22;2015;48.670;9.060;2022-09-30T02:04:28;9.00;99.90
4002;DHT22;2015;48.670;9.060;2022-09-30T02:07:06;9.00;99.90
4002;DHT22;2015;48.670;9.060;2022-09-30T02:09:48;9.00;99.90
4002;DHT22;2015;48.670;9.060;2022-09-30T02:12:25;8.90;99.90
4002;DHT22;2015;48.670;9.060;2022-09-30T02:15:02;8.90;99.90
4002;DHT22;2015;48.670;9.060;2022-09-30T02:17:41;8.80;99.90
4002;DHT22;2015;48.670;9.060;2022-09-30T02:20:25;8.80;99.90
4002;DHT22;2015;48.670;9.060;2022-09-30T02:23:04;8.70;99.90
4002;DHT22;2015;48.670;9.060;2022-09-30T02:25:46;8.70;99.90
4002;DHT22;2015;48.670;9.060;2022-09-30T02:28:23;8.70;99.90
4002;DHT22;2015;48.670;9.060;2022-09-30T02:31:01;8.60;99.90
4002;DHT22;2015;48.670;9.060;2022-09-30T02:33:39;8.60;99.90
4002;DHT22;2015;48.670;9.060;2022-09-30T02:36:25;8.60;99.90
4002;DHT22;2015;48.670;9.060;2022-09-30T02:39:05;8.50;99.90
4002;DHT22;2015;48.670;9.060;2022-09-30T02:41:44;8.50;99.90
4002;DHT22;2015;48.670;9.060;2022-09-30T02:44:19;8.50;99.90
4002;DHT22;2015;48.670;9.060;2022-09-30T02:49:48;8.50;99.90
4002;DHT22;2015;48.670;9.060;2022-09-30T02:52:41;8.50;99.90
4002;DHT22;2015;48.670;9.060;2022-09-30T02:55:26;8.50;99.90
4002;DHT22;2015;48.670;9.060;2022-09-30T02:58:00;8.50;99.90
4002;DHT22;2015;48.670;9.060;2022-09-30T03:00:34;8.50;99.90
4002;DHT22;2015;48.670;9.060;2022-09-30T03:03:14;8.50;99.90
4002;DHT22;2015;48.670;9.060;2022-09-30T03:05:50;8.50;99.90
4002;DHT22;2015;48.670;9.060;2022-09-30T03:08:22;8.50;99.90
4002;DHT22;2015;48.670;9.060;2022-09-30T03:10:54;8.50;99.90
4002;DHT22;2015;48.670;9.060;2022-09-30T03:16:20;8.50;99.90
4002;DHT22;2015;48.670;9.060;2022-09-30T03:30:06;8.40;99.90
4002;DHT22;2015;48.670;9.060;2022-09-30T03:38:49;8.40;99.90
4002;DHT22;2015;48.670;9.060;2022-09-30T03:41:35;8.30;99.90
4002;DHT22;2015;48.670;9.060;2022-09-30T03:47:09;8.30;99.90
4002;DHT22;2015;48.670;9.060;2022-09-30T03:49:47;8.30;99.90
4002;DHT22;2015;48.670;9.060;2022-09-30T03:52:22;8.30;99.90
4002;DHT22;2015;48.670;9.060;2022-09-30T03:54:58;8.20;99.90
4002;DHT22;2015;48.670;9.060;2022-09-30T03:57:31;8.20;99.90
4002;DHT22;2015;48.670;9.060;2022-09-30T04:00:04;8.20;99.90
4002;DHT22;2015;48.670;9.060;2022-09-30T04:02:36;8.10;99.90
4002;DHT22;2015;48.670;9.060;2022-09-30T04:05:08;8.00;99.90
4002;DHT22;2015;48.670;9.060;2022-09-30T04:07:40;8.00;99.90
4002;DHT22;2015;48.670;9.060;2022-09-30T04:10:11;7.90;99.90
4002;DHT22;2015;48.670;9.060;2022-09-30T04:12:43;7.90;99.90
4002;DHT22;2015;48.670;9.060;2022-09-30T04:15:15;7.80;99.90
4002;DHT22;2015;48.670;9.060;2022-09-30T04:17:46;7.80;99.90
4002;DHT22;2015;48.670;9.060;2022-09-30T04:20:18;7.80;99.90
4002;DHT22;2015;48.670;9.060;2022-09-30T04:22:50;7.90;99.90
4002;DHT22;2015;48.670;9.060;2022-09-30T04:25:22;7.90;99.90
4002;DHT22;2015;48.670;9.060;2022-09-30T04:27:55;7.90;99.90
4002;DHT22;2015;48.670;9.060;2022-09-30T04:30:26;7.80;99.90
4002;DHT22;2015;48.670;9.060;2022-09-30T04:33:04;7.80;99.90
4002;DHT22;2015;48.670;9.060;2022-09-30T04:35:36;7.80;99.90
4002;DHT22;2015;48.670;9.060;2022-09-30T04:38:07;7.70;99.90
4002;DHT22;2015;48.670;9.060;2022-09-30T04:40:39;7.80;99.90
4002;DHT22;2015;48.670;9.060;2022-09-30T04:43:11;7.80;99.90
4002;DHT22;2015;48.670;9.060;2022-09-30T04:45:44;7.90;99.90
4002;DHT22;2015;48.670;9.060;2022-09-30T04:48:16;7.90;99.90
4002;DHT22;2015;48.670;9.060;2022-09-30T04:50:48;7.90;99.90
4002;DHT22;2015;48.670;9.060;2022-09-30T04:53:20;7.80;99.90
4002;DHT22;2015;48.670;9.060;2022-09-30T04:55:58;7.70;99.90
4002;DHT22;2015;48.670;9.060;2022-09-30T04:58:30;7.70;99.90
4002;DHT22;2015;48.670;9.060;2022-09-30T05:01:13;7.60;99.90
4002;DHT22;2015;48.670;9.060;2022-09-30T05:03:45;7.70;99.90
4002;DHT22;2015;48.670;9.060;2022-09-30T05:06:17;7.70;99.90
4002;DHT22;2015;48.670;9.060;2022-09-30T05:08:50;7.70;99.90
4002;DHT22;2015;48.670;9.060;2022-09-30T05:11:21;7.70;99.90
4002;DHT22;2015;48.670;9.060;2022-09-30T05:13:53;7.70;99.90
4002;DHT22;2015;48.670;9.060;2022-09-30T05:16:26;7.80;99.90
4002;DHT22;2015;48.670;9.060;2022-09-30T05:18:58;7.70;99.90
4002;DHT22;2015;48.670;9.060;2022-09-30T05:21:30;7.80;99.90
4002;DHT22;2015;48.670;9.060;2022-09-30T05:24:02;7.80;99.90
4002;DHT22;2015;48.670;9.060;2022-09-30T05:26:34;7.80;99.90
4002;DHT22;2015;48.670;9.060;2022-09-30T05:29:06;7.90;99.90
4002;DHT22;2015;48.670;9.060;2022-09-30T05:31:37;7.90;99.90
4002;DHT22;2015;48.670;9.060;2022-09-30T05:34:09;8.00;99.90
4002;DHT22;2015;48.670;9.060;2022-09-30T05:36:42;8.00;99.90
4002;DHT22;2015;48.670;9.060;2022-09-30T05:39:14;8.00;99.90
4002;DHT22;2015;48.670;9.060;2022-09-30T05:41:46;8.10;99.90
4002;DHT22;2015;48.670;9.060;2022-09-30T05:44:18;8.10;99.90
4002;DHT22;2015;48.670;9.060;2022-09-30T05:46:49;8.20;99.90
4002;DHT22;2015;48.670;9.060;2022-09-30T05:49:21;8.20;99.90
4002;DHT22;2015;48.670;9.060;2022-09-30T05:51:53;8.20;99.90
4002;DHT22;2015;48.670;9.060;2022-09-30T05:54:25;8.20;99.90
4002;DHT22;2015;48.670;9.060;2022-09-30T05:56:57;8.20;99.90
4002;DHT22;2015;48.670;9.060;2022-09-30T05:59:29;8.30;99.90
4002;DHT22;2015;48.670;9.060;2022-09-30T06:02:00;8.40;99.90
4002;DHT22;2015;48.670;9.060;2022-09-30T06:04:32;8.40;99.90
4002;DHT22;2015;48.670;9.060;2022-09-30T06:07:04;8.40;99.90
4002;DHT22;2015;48.670;9.060;2022-09-30T06:09:41;8.50;99.90
4002;DHT22;2015;48.670;9.060;2022-09-30T06:12:13;8.60;99.90
4002;DHT22;2015;48.670;9.060;2022-09-30T06:14:45;8.70;99.90
4002;DHT22;2015;48.670;9.060;2022-09-30T06:17:16;8.70;99.90
4002;DHT22;2015;48.670;9.060;2022-09-30T06:19:49;8.90;99.90
4002;DHT22;2015;48.670;9.060;2022-09-30T06:22:20;9.00;99.90
4002;DHT22;2015;48.670;9.060;2022-09-30T06:24:52;9.10;99.90
4002;DHT22;2015;48.670;9.060;2022-09-30T06:27:26;9.20;99.90
4002;DHT22;2015;48.670;9.060;2022-09-30T06:29:58;9.30;99.90
4002;DHT22;2015;48.670;9.060;2022-09-30T06:32:31;9.40;99.90
4002;DHT22;2015;48.670;9.060;2022-09-30T06:35:03;9.50;99.90
4002;DHT22;2015;48.670;9.060;2022-09-30T06:37:35;9.60;99.90
4002;DHT22;2015;48.670;9.060;2022-09-30T06:40:08;9.60;99.90
4002;DHT22;2015;48.670;9.060;2022-09-30T06:42:40;9.70;99.90
4002;DHT22;2015;48.670;9.060;2022-09-30T06:45:12;9.80;99.90
4002;DHT22;2015;48.670;9.060;2022-09-30T06:48:00;9.80;99.90
4002;DHT22;2015;48.670;9.060;2022-09-30T06:50:32;9.90;99.90
4002;DHT22;2015;48.670;9.060;2022-09-30T06:53:06;9.90;99.90
4002;DHT22;2015;48.670;9.060;2022-09-30T06:55:39;10.00;99.90
4002;DHT22;2015;48.670;9.060;2022-09-30T06:58:14;10.10;99.90
4002;DHT22;2015;48.670;9.060;2022-09-30T07:01:04;10.00;99.90
4002;DHT22;2015;48.670;9.060;2022-09-30T07:03:37;10.00;99.90
4002;DHT22;2015;48.670;9.060;2022-09-30T07:06:09;10.00;99.90
4002;DHT22;2015;48.670;9.060;2022-09-30T07:08:41;10.10;99.90
4002;DHT22;2015;48.670;9.060;2022-09-30T07:11:13;10.00;99.90
4002;DHT22;2015;48.670;9.060;2022-09-30T07:13:46;10.10;99.90
4002;DHT22;2015;48.670;9.060;2022-09-30T07:16:19;10.20;99.90
4002;DHT22;2015;48.670;9.060;2022-09-30T07:18:52;10.40;99.90
4002;DHT22;2015;48.670;9.060;2022-09-30T07:21:24;10.40;99.90
4002;DHT22;2015;48.670;9.060;2022-09-30T07:23:57;10.50;99.90
4002;DHT22;2015;48.670;9.060;2022-09-30T07:26:30;10.50;99.90
4002;DHT22;2015;48.670;9.060;2022-09-30T07:29:02;10.50;99.90
4002;DHT22;2015;48.670;9.060;2022-09-30T07:31:34;10.60;99.90
4002;DHT22;2015;48.670;9.060;2022-09-30T07:34:07;10.60;99.90
4002;DHT22;2015;48.670;9.060;2022-09-30T07:36:40;10.70;99.90
4002;DHT22;2015;48.670;9.060;2022-09-30T07:39:12;10.70;99.90
4002;DHT22;2015;48.670;9.060;2022-09-30T07:41:43;10.70;99.90
4002;DHT22;2015;48.670;9.060;2022-09-30T07:44:15;10.60;99.90
4002;DHT22;2015;48.670;9.060;2022-09-30T07:46:47;10.70;99.90
4002;DHT22;2015;48.670;9.060;2022-09-30T07:49:20;10.80;99.90
4002;DHT22;2015;48.670;9.060;2022-09-30T07:51:57;10.90;99.90
4002;DHT22;2015;48.670;9.060;2022-09-30T07:54:31;10.90;99.90
4002;DHT22;2015;48.670;9.060;2022-09-30T07:57:09;11.00;99.90
4002;DHT22;2015;48.670;9.060;2022-09-30T07:59:42;11.10;99.90
4002;DHT22;2015;48.670;9.060;2022-09-30T08:02:17;11.20;99.90
4002;DHT22;2015;48.670;9.060;2022-09-30T08:04:49;11.30;99.90
4002;DHT22;2015;48.670;9.060;2022-09-30T08:07:21;11.30;99.90
4002;DHT22;2015;48.670;9.060;2022-09-30T08:09:53;11.40;99.90
4002;DHT22;2015;48.670;9.060;2022-09-30T08:12:24;11.50;99.90
4002;DHT22;2015;48.670;9.060;2022-09-30T08:14:56;11.40;99.90
4002;DHT22;2015;48.670;9.060;2022-09-30T08:17:28;11.40;99.90
4002;DHT22;2015;48.670;9.060;2022-09-30T08:20:00;11.50;99.90
4002;DHT22;2015;48.670;9.060;2022-09-30T08:22:31;11.40;99.90
4002;DHT22;2015;48.670;9.060;2022-09-30T08:25:03;11.30;99.90
4002;DHT22;2015;48.670;9.060;2022-09-30T08:27:35;11.20;99.90
4002;DHT22;2015;48.670;9.060;2022-09-30T08:30:08;11.30;99.90
4002;DHT22;2015;48.670;9.060;2022-09-30T08:32:40;11.40;99.90
4002;DHT22;2015;48.670;9.060;2022-09-30T08:35:11;11.50;99.90
4002;DHT22;2015;48.670;9.060;2022-09-30T08:37:43;11.60;99.90
4002;DHT22;2015;48.670;9.060;2022-09-30T08:40:25;11.60;99.90
4002;DHT22;2015;48.670;9.060;2022-09-30T08:43:08;11.70;99.90
4002;DHT22;2015;48.670;9.060;2022-09-30T08:46:10;11.80;99.90
4002;DHT22;2015;48.670;9.060;2022-09-30T08:48:51;11.80;99.90
4002;DHT22;2015;48.670;9.060;2022-09-30T08:51:41;11.90;99.90
4002;DHT22;2015;48.670;9.060;2022-09-30T08:54:18;12.00;99.90
4002;DHT22;2015;48.670;9.060;2022-09-30T08:56:51;12.30;99.90
4002;DHT22;2015;48.670;9.060;2022-09-30T08:59:28;12.40;99.90
4002;DHT22;2015;48.670;9.060;2022-09-30T09:04:49;13.00;99.90
4002;DHT22;2015;48.670;9.060;2022-09-30T09:07:27;13.10;99.90
4002;DHT22;2015;48.670;9.060;2022-09-30T09:13:06;13.00;99.90
4002;DHT22;2015;48.670;9.060;2022-09-30T09:18:41;13.10;99.90
4002;DHT22;2015;48.670;9.060;2022-09-30T09:24:27;13.30;99.90
4002;DHT22;2015;48.670;9.060;2022-09-30T09:27:00;13.50;99.90
4002;DHT22;2015;48.670;9.060;2022-09-30T09:29:52;13.70;99.90
4002;DHT22;2015;48.670;9.060;2022-09-30T09:32:27;13.80;99.90
4002;DHT22;2015;48.670;9.060;2022-09-30T09:37:59;14.40;99.90
4002;DHT22;2015;48.670;9.060;2022-09-30T09:43:47;15.50;99.90
4002;DHT22;2015;48.670;9.060;2022-09-30T09:46:32;16.50;99.90
4002;DHT22;2015;48.670;9.060;2022-09-30T09:54:45;19.40;99.90
4002;DHT22;2015;48.670;9.060;2022-09-30T09:57:20;19.70;99.90
4002;DHT22;2015;48.670;9.060;2022-09-30T10:00:25;19.30;99.90
4002;DHT22;2015;48.670;9.060;2022-09-30T10:08:39;18.60;99.90
4002;DHT22;2015;48.670;9.060;2022-09-30T10:11:24;19.00;99.90
4002;DHT22;2015;48.670;9.060;2022-09-30T10:14:00;19.30;99.90
4002;DHT22;2015;48.670;9.060;2022-09-30T10:16:33;19.50;99.90
4002;DHT22;2015;48.670;9.060;2022-09-30T10:19:22;20.10;99.90
4002;DHT22;2015;48.670;9.060;2022-09-30T10:24:39;21.20;99.90
4002;DHT22;2015;48.670;9.060;2022-09-30T10:27:32;21.30;99.90
4002;DHT22;2015;48.670;9.060;2022-09-30T10:30:05;21.40;99.90
4002;DHT22;2015;48.670;9.060;2022-09-30T10:32:37;20.90;99.90
4002;DHT22;2015;48.670;9.060;2022-09-30T10:35:19;20.50;99.90
4002;DHT22;2015;48.670;9.060;2022-09-30T10:37:53;21.00;99.90
4002;DHT22;2015;48.670;9.060;2022-09-30T10:40:29;21.30;99.90
4002;DHT22;2015;48.670;9.060;2022-09-30T10:43:01;21.30;99.90
4002;DHT22;2015;48.670;9.060;2022-09-30T10:45:35;21.20;99.90
4002;DHT22;2015;48.670;9.060;2022-09-30T10:48:17;21.60;99.90
4002;DHT22;2015;48.670;9.060;2022-09-30T10:50:51;22.30;99.90
4002;DHT22;2015;48.670;9.060;2022-09-30T10:53:25;22.60;99.90
4002;DHT22;2015;48.670;9.060;2022-09-30T10:55:57;23.00;99.20
4002;DHT22;2015;48.670;9.060;2022-09-30T10:58:51;23.40;99.20
4002;DHT22;2015;48.670;9.060;2022-09-30T11:01:52;23.60;98.20
4002;DHT22;2015;48.670;9.060;2022-09-30T11:04:38;23.70;96.90
4002;DHT22;2015;48.670;9.060;2022-09-30T11:07:35;22.70;96.20
4002;DHT22;2015;48.670;9.060;2022-09-30T11:13:23;19.20;99.90
4002;DHT22;2015;48.670;9.060;2022-09-30T11:18:55;18.60;99.90
4002;DHT22;2015;48.670;9.060;2022-09-30T11:21:41;18.20;99.90
4002;DHT22;2015;48.670;9.060;2022-09-30T11:30:03;16.50;99.90
4002;DHT22;2015;48.670;9.060;2022-09-30T11:32:57;16.20;99.90
4002;DHT22;2015;48.670;9.060;2022-09-30T11:38:46;16.00;99.90
4002;DHT22;2015;48.670;9.060;2022-09-30T11:44:31;15.70;99.90
4002;DHT22;2015;48.670;9.060;2022-09-30T11:50:21;15.80;99.90
4002;DHT22;2015;48.670;9.060;2022-09-30T11:53:12;15.80;99.90
4002;DHT22;2015;48.670;9.060;2022-09-30T11:56:01;15.90;99.90
4002;DHT22;2015;48.670;9.060;2022-09-30T11:58:42;15.70;99.90
4002;DHT22;2015;48.670;9.060;2022-09-30T12:01:39;15.80;99.90
4002;DHT22;2015;48.670;9.060;2022-09-30T12:04:23;15.80;99.90
4002;DHT22;2015;48.670;9.060;2022-09-30T12:07:04;15.60;99.90
4002;DHT22;2015;48.670;9.060;2022-09-30T12:09:45;15.50;99.90
4002;DHT22;2015;48.670;9.060;2022-09-30T12:12:18;15.30;99.90
4002;DHT22;2015;48.670;9.060;2022-09-30T12:17:31;15.00;99.90
4002;DHT22;2015;48.670;9.060;2022-09-30T12:20:19;14.90;99.90
4002;DHT22;2015;48.670;9.060;2022-09-30T12:23:01;15.10;99.90
4002;DHT22;2015;48.670;9.060;2022-09-30T12:25:57;15.10;99.90
4002;DHT22;2015;48.670;9.060;2022-09-30T12:29:01;15.10;99.90
4002;DHT22;2015;48.670;9.060;2022-09-30T12:32:21;15.20;99.90
4002;DHT22;2015;48.670;9.060;2022-09-30T12:49:55;15.50;99.90
4002;DHT22;2015;48.670;9.060;2022-09-30T12:52:32;15.60;99.90
4002;DHT22;2015;48.670;9.060;2022-09-30T12:57:51;15.60;99.90
4002;DHT22;2015;48.670;9.060;2022-09-30T13:00:25;15.50;99.90
4002;DHT22;2015;48.670;9.060;2022-09-30T13:03:08;15.40;99.90
4002;DHT22;2015;48.670;9.060;2022-09-30T13:05:51;15.50;99.90
4002;DHT22;2015;48.670;9.060;2022-09-30T13:08:35;15.50;99.90
4002;DHT22;2015;48.670;9.060;2022-09-30T13:14:38;15.50;99.90
4002;DHT22;2015;48.670;9.060;2022-09-30T13:19:51;15.40;99.90
4002;DHT22;2015;48.670;9.060;2022-09-30T13:30:38;15.40;99.90
4002;DHT22;2015;48.670;9.060;2022-09-30T13:33:29;15.40;99.90
4002;DHT22;2015;48.670;9.060;2022-09-30T13:36:06;15.40;99.90
4002;DHT22;2015;48.670;9.060;2022-09-30T13:38:38;15.50;99.90
4002;DHT22;2015;48.670;9.060;2022-09-30T13:41:18;15.60;99.90
4002;DHT22;2015;48.670;9.060;2022-09-30T13:46:55;15.60;99.90
4002;DHT22;2015;48.670;9.060;2022-09-30T13:52:25;15.60;99.90
4002;DHT22;2015;48.670;9.060;2022-09-30T13:55:06;15.50;99.90
4002;DHT22;2015;48.670;9.060;2022-09-30T14:03:54;15.50;99.90
4002;DHT22;2015;48.670;9.060;2022-09-30T14:21:42;14.90;99.90
4002;DHT22;2015;48.670;9.060;2022-09-30T14:24:21;14.90;99.90
4002;DHT22;2015;48.670;9.060;2022-09-30T14:30:03;14.90;99.90
4002;DHT22;2015;48.670;9.060;2022-09-30T14:32:47;14.90;99.90
4002;DHT22;2015;48.670;9.060;2022-09-30T14:35:26;15.10;99.90
4002;DHT22;2015;48.670;9.060;2022-09-30T14:38:21;15.20;99.90
4002;DHT22;2015;48.670;9.060;2022-09-30T14:40:58;15.20;99.90
4002;DHT22;2015;48.670;9.060;2022-09-30T14:43:40;15.30;99.90
4002;DHT22;2015;48.670;9.060;2022-09-30T14:46:26;15.30;99.90
4002;DHT22;2015;48.670;9.060;2022-09-30T14:49:04;15.20;99.90
4002;DHT22;2015;48.670;9.060;2022-09-30T14:51:40;15.00;99.90
4002;DHT22;2015;48.670;9.060;2022-09-30T14:54:20;14.90;99.90
4002;DHT22;2015;48.670;9.060;2022-09-30T14:56:52;14.80;99.90
4002;DHT22;2015;48.670;9.060;2022-09-30T15:02:19;14.50;99.90
4002;DHT22;2015;48.670;9.060;2022-09-30T15:04:53;14.50;99.90
4002;DHT22;2015;48.670;9.060;2022-09-30T15:07:31;14.40;99.90
4002;DHT22;2015;48.670;9.060;2022-09-30T15:10:04;14.30;99.90
4002;DHT22;2015;48.670;9.060;2022-09-30T15:12:41;14.10;99.90
4002;DHT22;2015;48.670;9.060;2022-09-30T15:15:32;13.90;99.90
4002;DHT22;2015;48.670;9.060;2022-09-30T15:18:26;13.80;99.90
4002;DHT22;2015;48.670;9.060;2022-09-30T15:21:08;13.70;99.90
4002;DHT22;2015;48.670;9.060;2022-09-30T15:23:52;13.50;99.90
4002;DHT22;2015;48.670;9.060;2022-09-30T15:26:25;13.40;99.90
4002;DHT22;2015;48.670;9.060;2022-09-30T15:28:57;13.20;99.90
4002;DHT22;2015;48.670;9.060;2022-09-30T15:31:30;13.10;99.90
4002;DHT22;2015;48.670;9.060;2022-09-30T15:34:06;12.90;99.90
4002;DHT22;2015;48.670;9.060;2022-09-30T15:36:39;12.80;99.90
4002;DHT22;2015;48.670;9.060;2022-09-30T15:39:24;12.70;99.90
4002;DHT22;2015;48.670;9.060;2022-09-30T15:42:56;12.60;99.90
4002;DHT22;2015;48.670;9.060;2022-09-30T15:45:39;12.40;99.90
4002;DHT22;2015;48.670;9.060;2022-09-30T15:50:59;12.30;99.90
4002;DHT22;2015;48.670;9.060;2022-09-30T15:56:23;12.20;99.90
4002;DHT22;2015;48.670;9.060;2022-09-30T15:59:12;12.20;99.90
4002;DHT22;2015;48.670;9.060;2022-09-30T16:01:46;12.20;99.90
4002;DHT22;2015;48.670;9.060;2022-09-30T16:06:58;12.10;99.90
4002;DHT22;2015;48.670;9.060;2022-09-30T16:09:36;12.10;99.90
4002;DHT22;2015;48.670;9.060;2022-09-30T16:12:16;12.00;99.90
4002;DHT22;2015;48.670;9.060;2022-09-30T16:15:09;11.90;99.90
4002;DHT22;2015;48.670;9.060;2022-09-30T16:17:47;11.80;99.90
4002;DHT22;2015;48.670;9.060;2022-09-30T16:20:22;11.80;99.90
4002;DHT22;2015;48.670;9.060;2022-09-30T16:22:55;11.70;99.90
4002;DHT22;2015;48.670;9.060;2022-09-30T16:25:29;11.60;99.90
4002;DHT22;2015;48.670;9.060;2022-09-30T16:28:13;11.60;99.90
4002;DHT22;2015;48.670;9.060;2022-09-30T16:30:49;11.50;99.90
4002;DHT22;2015;48.670;9.060;2022-09-30T16:33:21;11.40;99.90
4002;DHT22;2015;48.670;9.060;2022-09-30T16:35:53;11.40;99.90
4002;DHT22;2015;48.670;9.060;2022-09-30T16:38:25;11.30;99.90
4002;DHT22;2015;48.670;9.060;2022-09-30T16:40:56;11.20;99.90
4002;DHT22;2015;48.670;9.060;2022-09-30T16:43:29;11.20;99.90
4002;DHT22;2015;48.670;9.060;2022-09-30T16:46:02;11.10;99.90
4002;DHT22;2015;48.670;9.060;2022-09-30T16:48:33;11.00;99.90
4002;DHT22;2015;48.670;9.060;2022-09-30T16:51:13;11.00;99.90
4002;DHT22;2015;48.670;9.060;2022-09-30T16:53:46;10.90;99.90
4002;DHT22;2015;48.670;9.060;2022-09-30T16:56:19;10.90;99.90
4002;DHT22;2015;48.670;9.060;2022-09-30T16:58:51;10.80;99.90
4002;DHT22;2015;48.670;9.060;2022-09-30T17:01:24;10.80;99.90
4002;DHT22;2015;48.670;9.060;2022-09-30T17:03:56;10.70;99.90
4002;DHT22;2015;48.670;9.060;2022-09-30T17:06:30;10.70;99.90
4002;DHT22;2015;48.670;9.060;2022-09-30T17:09:03;10.70;99.90
4002;DHT22;2015;48.670;9.060;2022-09-30T17:11:35;10.70;99.90
4002;DHT22;2015;48.670;9.060;2022-09-30T17:14:08;10.60;99.90
4002;DHT22;2015;48.670;9.060;2022-09-30T17:16:40;10.60;99.90
4002;DHT22;2015;48.670;9.060;2022-09-30T17:19:12;10.50;99.90
4002;DHT22;2015;48.670;9.060;2022-09-30T17:21:44;10.50;99.90
4002;DHT22;2015;48.670;9.060;2022-09-30T17:24:16;10.50;99.90
4002;DHT22;2015;48.670;9.060;2022-09-30T17:26:48;10.50;99.90
4002;DHT22;2015;48.670;9.060;2022-09-30T17:29:20;10.40;99.90
4002;DHT22;2015;48.670;9.060;2022-09-30T17:32:03;10.30;99.90
4002;DHT22;2015;48.670;9.060;2022-09-30T17:34:34;10.30;99.90
4002;DHT22;2015;48.670;9.060;2022-09-30T17:37:06;10.20;99.90
4002;DHT22;2015;48.670;9.060;2022-09-30T17:39:43;10.20;99.90
4002;DHT22;2015;48.670;9.060;2022-09-30T17:42:15;10.10;99.90
4002;DHT22;2015;48.670;9.060;2022-09-30T17:45:06;10.10;99.90
4002;DHT22;2015;48.670;9.060;2022-09-30T17:47:37;10.00;99.90
4002;DHT22;2015;48.670;9.060;2022-09-30T17:50:11;10.00;99.90
4002;DHT22;2015;48.670;9.060;2022-09-30T17:52:43;9.90;99.90
4002;DHT22;2015;48.670;9.060;2022-09-30T17:55:15;9.90;99.90
4002;DHT22;2015;48.670;9.060;2022-09-30T17:57:47;9.90;99.90
4002;DHT22;2015;48.670;9.060;2022-09-30T18:00:18;9.80;99.90
4002;DHT22;2015;48.670;9.060;2022-09-30T18:02:51;9.80;99.90
4002;DHT22;2015;48.670;9.060;2022-09-30T18:05:23;9.70;99.90
4002;DHT22;2015;48.670;9.060;2022-09-30T18:07:58;9.70;99.90
4002;DHT22;2015;48.670;9.060;2022-09-30T18:10:30;9.70;99.90
4002;DHT22;2015;48.670;9.060;2022-09-30T18:13:01;9.70;99.90
4002;DHT22;2015;48.670;9.060;2022-09-30T18:15:33;9.70;99.90
4002;DHT22;2015;48.670;9.060;2022-09-30T18:18:05;9.70;99.90
4002;DHT22;2015;48.670;9.060;2022-09-30T18:20:43;9.70;99.90
4002;DHT22;2015;48.670;9.060;2022-09-30T18:23:16;9.70;99.90
4002;DHT22;2015;48.670;9.060;2022-09-30T18:25:49;9.70;99.90
4002;DHT22;2015;48.670;9.060;2022-09-30T18:28:24;9.70;99.90
4002;DHT22;2015;48.670;9.060;2022-09-30T18:31:04;9.70;99.90
4002;DHT22;2015;48.670;9.060;2022-09-30T18:33:35;9.70;99.90
4002;DHT22;2015;48.670;9.060;2022-09-30T18:36:07;9.70;99.90
4002;DHT22;2015;48.670;9.060;2022-09-30T18:38:39;9.70;99.90
4002;DHT22;2015;48.670;9.060;2022-09-30T18:41:11;9.70;99.90
4002;DHT22;2015;48.670;9.060;2022-09-30T18:43:43;9.70;99.90
4002;DHT22;2015;48.670;9.060;2022-09-30T18:46:15;9.70;99.90
4002;DHT22;2015;48.670;9.060;2022-09-30T18:48:50;9.70;99.90
4002;DHT22;2015;48.670;9.060;2022-09-30T18:51:24;9.70;99.90
4002;DHT22;2015;48.670;9.060;2022-09-30T18:53:58;9.70;99.90
4002;DHT22;2015;48.670;9.060;2022-09-30T18:56:31;9.70;99.90
4002;DHT22;2015;48.670;9.060;2022-09-30T18:59:03;9.70;99.90
4002;DHT22;2015;48.670;9.060;2022-09-30T19:01:35;9.70;99.90
4002;DHT22;2015;48.670;9.060;2022-09-30T19:04:09;9.70;99.90
4002;DHT22;2015;48.670;9.060;2022-09-30T19:06:43;9.70;99.90
4002;DHT22;2015;48.670;9.060;2022-09-30T19:09:15;9.80;99.90
4002;DHT22;2015;48.670;9.060;2022-09-30T19:11:47;9.90;99.90
4002;DHT22;2015;48.670;9.060;2022-09-30T19:14:20;9.80;99.90
4002;DHT22;2015;48.670;9.060;2022-09-30T19:16:54;9.80;99.90
4002;DHT22;2015;48.670;9.060;2022-09-30T19:19:26;9.70;99.90
4002;DHT22;2015;48.670;9.060;2022-09-30T19:21:59;9.60;99.90
4002;DHT22;2015;48.670;9.060;2022-09-30T19:24:33;9.50;99.90
4002;DHT22;2015;48.670;9.060;2022-09-30T19:27:06;9.40;99.90
4002;DHT22;2015;48.670;9.060;2022-09-30T19:29:38;9.30;99.90
4002;DHT22;2015;48.670;9.060;2022-09-30T19:32:10;9.30;99.90
4002;DHT22;2015;48.670;9.060;2022-09-30T19:34:44;9.20;99.90
4002;DHT22;2015;48.670;9.060;2022-09-30T19:37:30;9.20;99.90
4002;DHT22;2015;48.670;9.060;2022-09-30T19:40:02;9.10;99.90
4002;DHT22;2015;48.670;9.060;2022-09-30T19:42:50;9.10;99.90
4002;DHT22;2015;48.670;9.060;2022-09-30T19:45:22;9.00;99.90
4002;DHT22;2015;48.670;9.060;2022-09-30T19:47:57;8.90;99.90
4002;DHT22;2015;48.670;9.060;2022-09-30T19:50:29;8.90;99.90
4002;DHT22;2015;48.670;9.060;2022-09-30T19:53:01;8.90;99.90
4002;DHT22;2015;48.670;9.060;2022-09-30T19:55:33;8.90;99.90
4002;DHT22;2015;48.670;9.060;2022-09-30T19:58:20;8.80;99.90
4002;DHT22;2015;48.670;9.060;2022-09-30T20:00:53;8.80;99.90
4002;DHT22;2015;48.670;9.060;2022-09-30T20:03:27;8.70;99.90
4002;DHT22;2015;48.670;9.060;2022-09-30T20:06:04;8.70;99.90
4002;DHT22;2015;48.670;9.060;2022-09-30T20:08:36;8.70;99.90
4002;DHT22;2015;48.670;9.060;2022-09-30T20:11:09;8.60;99.90
4002;DHT22;2015;48.670;9.060;2022-09-30T20:13:41;8.60;99.90
4002;DHT22;2015;48.670;9.060;2022-09-30T20:16:14;8.50;99.90